Time;durP1;ratioP1;P1;durP2;ratioP2;P2;SDS_P1;SDS_P2;PMS_P1;PMS_P2;Temp;Humidity;BMP_temperature;BMP_pressure;BME280_temperature;BME280_humidity;BME280_pressure;Samples;Min_cycle;Max_cycle;Signal;HPM_P1;HPM_P2
2022/07/27 00:01:14;;;;;;;0.10;0.10;;;14.80;71.70;;;;;;6275723;22;20018;-75
2022/07/27 00:03:40;;;;;;;0.20;0.20;;;14.70;71.70;;;;;;6275083;22;20057;-79
2022/07/27 00:06:06;;;;;;;0.20;0.17;;;14.70;71.80;;;;;;6274797;22;20065;-78
2022/07/27 00:08:32;;;;;;;0.10;0.10;;;14.70;71.80;;;;;;6275537;22;20035;-78
2022/07/27 00:10:58;;;;;;;0.20;0.20;;;14.80;71.80;;;;;;6274858;22;20012;-78
2022/07/27 00:13:25;;;;;;;0.20;0.10;;;14.80;71.80;;;;;;6273274;22;20375;-78
2022/07/27 00:15:50;;;;;;;1.08;0.20;;;14.80;71.90;;;;;;6273188;22;20004;-78
2022/07/27 00:18:16;;;;;;;0.10;0.10;;;14.80;71.90;;;;;;6247872;22;20125;-78
2022/07/27 00:20:42;;;;;;;0.20;0.13;;;14.70;72.00;;;;;;6274867;22;20443;-77
2022/07/27 00:23:08;;;;;;;0.32;0.20;;;14.70;72.00;;;;;;6274778;22;20008;-78
2022/07/27 00:25:34;;;;;;;0.30;0.30;;;14.70;72.00;;;;;;6273789;22;20050;-78
2022/07/27 00:28:01;;;;;;;0.20;0.17;;;14.70;72.10;;;;;;6274969;22;20008;-78
2022/07/27 00:30:27;;;;;;;0.35;0.22;;;14.80;72.20;;;;;;6274469;22;20023;-77
2022/07/27 00:32:53;;;;;;;0.20;0.13;;;14.60;72.10;;;;;;6275534;22;20004;-78
2022/07/27 00:35:19;;;;;;;0.40;0.20;;;14.60;72.30;;;;;;6275896;22;20317;-78
2022/07/27 00:37:45;;;;;;;0.20;0.20;;;14.60;72.40;;;;;;6274807;22;20010;-78
2022/07/27 00:40:11;;;;;;;0.10;0.10;;;14.60;72.40;;;;;;6275728;22;20012;-78
2022/07/27 00:42:37;;;;;;;0.20;0.20;;;14.50;72.40;;;;;;6275724;22;20078;-78
2022/07/27 00:45:04;;;;;;;0.13;0.13;;;14.50;72.40;;;;;;6274271;22;20336;-78
2022/07/27 00:47:30;;;;;;;0.20;0.20;;;14.50;72.50;;;;;;6274200;22;20451;-78
2022/07/27 00:49:57;;;;;;;0.10;0.10;;;14.50;72.50;;;;;;6276352;22;20015;-77
2022/07/27 00:52:23;;;;;;;0.20;0.20;;;14.50;72.60;;;;;;6276696;22;20004;-78
2022/07/27 00:54:49;;;;;;;0.20;0.20;;;14.40;72.50;;;;;;6276010;22;20031;-78
2022/07/27 00:57:15;;;;;;;0.68;0.20;;;14.30;72.50;;;;;;6249089;22;20386;-78
2022/07/27 00:59:42;;;;;;;0.20;0.13;;;14.40;72.60;;;;;;6276125;22;20017;-78
2022/07/27 01:02:09;;;;;;;0.20;0.20;;;14.40;72.80;;;;;;6274257;22;20389;-78
2022/07/27 01:04:35;;;;;;;0.20;0.20;;;14.40;72.80;;;;;;6274193;22;20012;-78
2022/07/27 01:07:02;;;;;;;0.30;0.30;;;14.30;72.80;;;;;;6274120;22;20016;-78
2022/07/27 01:12:14;;;;;;;1.08;0.50;;;14.30;72.90;;;;;;6275698;22;20024;-78
2022/07/27 01:14:40;;;;;;;0.77;0.40;;;14.20;73.00;;;;;;6276019;22;20164;-78
2022/07/27 01:17:06;;;;;;;0.17;0.17;;;14.20;73.00;;;;;;6276109;22;20505;-77
2022/07/27 01:19:34;;;;;;;0.20;0.20;;;14.20;73.00;;;;;;6275779;22;20024;-78
2022/07/27 01:22:01;;;;;;;1.45;0.30;;;14.20;73.10;;;;;;6275719;22;20008;-78
2022/07/27 01:24:27;;;;;;;0.40;0.28;;;14.10;73.10;;;;;;6274094;22;20015;-78
2022/07/27 01:26:53;;;;;;;0.30;0.30;;;14.10;73.20;;;;;;6276375;22;20007;-78
2022/07/27 01:29:18;;;;;;;0.30;0.30;;;14.10;73.30;;;;;;6275706;22;20497;-77
2022/07/27 01:31:44;;;;;;;0.50;0.13;;;14.10;73.30;;;;;;6275542;22;20008;-78
2022/07/27 01:34:10;;;;;;;0.30;0.30;;;14.10;73.40;;;;;;6275747;22;20068;-78
2022/07/27 01:36:36;;;;;;;0.15;0.15;;;14.00;73.40;;;;;;6276392;22;20035;-78
2022/07/27 01:39:01;;;;;;;0.40;0.20;;;14.00;73.60;;;;;;6275564;22;20008;-77
2022/07/27 01:41:27;;;;;;;0.65;0.20;;;14.00;73.60;;;;;;6275708;22;20347;-78
2022/07/27 01:43:53;;;;;;;0.17;0.17;;;14.00;73.60;;;;;;6275979;22;20367;-78
2022/07/27 01:46:18;;;;;;;0.10;0.10;;;13.90;73.60;;;;;;6273919;22;20513;-78
2022/07/27 01:48:44;;;;;;;0.30;0.30;;;13.90;73.70;;;;;;6276507;22;20008;-77
2022/07/27 01:51:10;;;;;;;0.30;0.30;;;13.90;73.70;;;;;;6276392;22;20007;-78
2022/07/27 01:53:36;;;;;;;0.30;0.20;;;13.90;73.70;;;;;;6276140;22;20014;-78
2022/07/27 01:56:01;;;;;;;0.20;0.20;;;13.90;73.70;;;;;;6275818;22;20431;-78
2022/07/27 01:58:27;;;;;;;0.20;0.20;;;13.90;73.70;;;;;;6274025;22;20012;-77
2022/07/27 02:00:53;;;;;;;0.20;0.20;;;13.90;73.70;;;;;;6274171;22;20371;-77
2022/07/27 02:03:18;;;;;;;0.20;0.20;;;13.90;73.70;;;;;;6274209;22;20042;-75
2022/07/27 02:05:44;;;;;;;0.43;0.20;;;13.90;73.80;;;;;;6275816;22;20007;-77
2022/07/27 02:08:10;;;;;;;0.10;0.10;;;13.80;73.90;;;;;;6274077;22;20385;-77
2022/07/27 02:12:34;;;;;;;0.10;0.10;;;13.80;73.90;;;;;;6276120;22;20011;-77
2022/07/27 02:13:22;;;;;;;0.10;0.10;;;13.80;74.00;;;;;;6274866;22;21027;-78
2022/07/27 02:15:48;;;;;;;0.10;0.10;;;13.80;74.10;;;;;;6273687;22;20513;-77
2022/07/27 02:18:13;;;;;;;0.10;0.10;;;13.70;74.10;;;;;;6274709;22;20007;-77
2022/07/27 02:20:41;;;;;;;0.22;0.20;;;13.70;74.10;;;;;;6275167;22;20012;-78
2022/07/27 02:23:07;;;;;;;0.28;0.10;;;13.70;74.20;;;;;;6275954;22;20014;-78
2022/07/27 02:25:34;;;;;;;0.20;0.20;;;13.70;74.30;;;;;;6273847;22;20008;-77
2022/07/27 02:28:01;;;;;;;0.13;0.10;;;13.70;74.30;;;;;;6275556;22;20012;-77
2022/07/27 02:30:26;;;;;;;0.20;0.20;;;13.70;74.30;;;;;;6273788;22;20042;-78
2022/07/27 02:32:52;;;;;;;0.20;0.20;;;13.70;74.30;;;;;;6275360;22;20007;-77
2022/07/27 02:35:18;;;;;;;0.30;0.20;;;13.70;74.30;;;;;;6275978;22;20008;-77
2022/07/27 02:37:45;;;;;;;0.10;0.10;;;13.80;74.40;;;;;;6275389;22;20340;-77
2022/07/27 02:40:11;;;;;;;0.20;0.10;;;13.70;74.40;;;;;;6273462;22;20023;-77
2022/07/27 02:42:37;;;;;;;0.28;0.20;;;13.70;74.40;;;;;;6274921;22;20014;-78
2022/07/27 02:45:03;;;;;;;0.20;0.20;;;13.70;74.40;;;;;;6273834;22;20090;-75
2022/07/27 02:47:29;;;;;;;0.30;0.30;;;13.70;74.40;;;;;;6273741;22;20336;-77
2022/07/27 02:49:54;;;;;;;0.20;0.20;;;13.70;74.40;;;;;;6275334;22;20004;-77
2022/07/27 02:52:20;;;;;;;0.20;0.20;;;13.70;74.40;;;;;;6275840;22;20091;-75
2022/07/27 02:54:46;;;;;;;1.08;0.30;;;13.70;74.50;;;;;;6275373;22;20016;-78
2022/07/27 02:57:11;;;;;;;0.30;0.15;;;13.70;74.50;;;;;;6274188;22;20026;-77
2022/07/27 02:59:37;;;;;;;0.17;0.17;;;13.60;74.60;;;;;;6248117;22;20039;-78
2022/07/27 03:02:03;;;;;;;0.20;0.20;;;13.70;74.60;;;;;;6275981;22;20031;-77
2022/07/27 03:04:28;;;;;;;0.32;0.20;;;13.70;74.70;;;;;;6274155;22;20494;-78
2022/07/27 03:06:54;;;;;;;0.28;0.20;;;13.60;74.60;;;;;;6275119;22;20501;-74
2022/07/27 03:09:20;;;;;;;0.20;0.20;;;13.60;74.70;;;;;;6275777;22;20027;-77
2022/07/27 03:11:45;;;;;;;0.30;0.30;;;13.50;74.70;;;;;;6274998;22;20004;-78
2022/07/27 03:14:11;;;;;;;0.22;0.22;;;13.60;74.80;;;;;;6275842;22;20018;-78
2022/07/27 03:16:38;;;;;;;0.10;0.10;;;13.50;74.90;;;;;;6276145;22;20479;-77
2022/07/27 03:19:05;;;;;;;0.20;0.20;;;13.50;74.90;;;;;;6275895;22;20029;-77
2022/07/27 03:21:30;;;;;;;0.32;0.28;;;13.60;75.00;;;;;;6274971;22;20016;-75
2022/07/27 03:23:56;;;;;;;0.10;0.10;;;13.60;75.00;;;;;;6275964;22;20158;-75
2022/07/27 03:26:22;;;;;;;0.20;0.20;;;13.50;74.90;;;;;;6274363;22;20007;-77
2022/07/27 03:28:48;;;;;;;0.10;0.10;;;13.50;74.90;;;;;;6275369;22;20495;-75
2022/07/27 03:31:14;;;;;;;0.10;0.10;;;13.50;75.00;;;;;;6275709;22;20057;-75
2022/07/27 03:33:39;;;;;;;0.17;0.17;;;13.50;75.10;;;;;;6275816;22;20012;-75
2022/07/27 03:36:06;;;;;;;0.15;0.15;;;13.40;75.20;;;;;;6275372;22;20012;-75
2022/07/27 03:38:31;;;;;;;0.20;0.20;;;13.40;75.10;;;;;;6275796;22;20377;-75
2022/07/27 03:40:57;;;;;;;0.20;0.20;;;13.40;75.10;;;;;;6275080;22;20007;-76
2022/07/27 03:43:23;;;;;;;0.15;0.15;;;13.40;75.20;;;;;;6248978;22;20008;-76
2022/07/27 03:45:49;;;;;;;0.10;0.10;;;13.40;75.20;;;;;;6273516;22;20138;-75
2022/07/27 03:48:15;;;;;;;0.63;0.20;;;13.30;75.30;;;;;;6275159;22;19999;-75
2022/07/27 03:50:41;;;;;;;0.40;0.28;;;13.40;75.40;;;;;;6273458;22;20019;-75
2022/07/27 03:53:08;;;;;;;0.20;0.20;;;13.30;75.40;;;;;;6274609;22;20435;-75
2022/07/27 03:55:33;;;;;;;0.15;0.15;;;13.30;75.50;;;;;;6274986;22;20011;-75
2022/07/27 03:57:59;;;;;;;0.20;0.20;;;13.20;75.60;;;;;;6273525;22;20431;-75
2022/07/27 04:00:25;;;;;;;0.20;0.20;;;13.30;75.70;;;;;;6275001;22;20012;-75
2022/07/27 04:02:51;;;;;;;0.30;0.30;;;13.20;75.70;;;;;;6275142;22;20344;-77
2022/07/27 04:05:17;;;;;;;0.20;0.20;;;13.20;75.70;;;;;;6273383;22;20007;-77
2022/07/27 04:07:42;;;;;;;0.20;0.20;;;13.20;75.70;;;;;;6273506;22;20003;-77
2022/07/27 04:10:09;;;;;;;0.20;0.20;;;13.20;75.80;;;;;;6275481;22;20379;-77
2022/07/27 04:12:36;;;;;;;0.20;0.20;;;13.20;75.80;;;;;;6273678;22;20436;-77
2022/07/27 04:15:03;;;;;;;0.20;0.20;;;13.20;75.80;;;;;;6275493;22;20011;-78
2022/07/27 04:17:29;;;;;;;0.25;0.25;;;13.20;75.80;;;;;;6274948;22;20074;-77
2022/07/27 04:19:54;;;;;;;0.20;0.20;;;13.30;75.90;;;;;;6273234;22;20050;-77
2022/07/27 04:22:20;;;;;;;0.20;0.20;;;13.20;75.80;;;;;;6274341;22;20011;-77
2022/07/27 04:24:46;;;;;;;0.10;0.10;;;13.20;75.90;;;;;;6275509;22;20007;-77
2022/07/27 04:27:12;;;;;;;0.10;0.10;;;13.20;76.50;;;;;;6273531;22;20098;-77
2022/07/27 04:29:37;;;;;;;0.25;0.20;;;13.30;75.90;;;;;;6274984;22;20435;-78
2022/07/27 04:32:03;;;;;;;0.20;0.20;;;13.30;75.90;;;;;;6273406;22;20069;-77
2022/07/27 04:34:29;;;;;;;0.10;0.10;;;13.30;75.80;;;;;;6247717;22;20509;-77
2022/07/27 04:36:55;;;;;;;0.20;0.20;;;13.30;75.80;;;;;;6275629;22;20012;-78
2022/07/27 04:39:21;;;;;;;0.10;0.10;;;13.30;75.80;;;;;;6275555;22;20326;-78
2022/07/27 04:41:46;;;;;;;0.10;0.10;;;13.30;75.70;;;;;;6275671;22;20320;-77
2022/07/27 04:44:12;;;;;;;0.10;0.10;;;13.30;75.70;;;;;;6275086;22;20057;-77
2022/07/27 04:46:38;;;;;;;0.20;0.20;;;13.40;75.70;;;;;;6273240;22;20018;-77
2022/07/27 04:49:03;;;;;;;0.20;0.20;;;13.40;75.70;;;;;;6275561;22;20038;-77
2022/07/27 04:51:29;;;;;;;0.10;0.10;;;13.40;75.70;;;;;;6275023;22;20012;-78
2022/07/27 04:53:55;;;;;;;0.20;0.20;;;13.40;75.70;;;;;;6273456;22;20011;-77
2022/07/27 04:56:20;;;;;;;0.10;0.10;;;13.30;75.70;;;;;;6275014;22;20343;-77
2022/07/27 04:58:46;;;;;;;0.20;0.20;;;13.40;75.70;;;;;;6274961;22;20444;-77
2022/07/27 05:01:12;;;;;;;0.77;0.30;;;13.40;75.70;;;;;;6275493;22;20015;-78
2022/07/27 05:03:39;;;;;;;0.38;0.20;;;13.50;75.80;;;;;;6274593;22;20317;-78
2022/07/27 05:06:05;;;;;;;0.40;0.20;;;13.50;75.80;;;;;;6275507;22;20058;-77
2022/07/27 05:08:32;;;;;;;0.20;0.20;;;13.50;75.80;;;;;;6274911;22;20420;-77
2022/07/27 05:10:57;;;;;;;0.20;0.20;;;13.60;75.80;;;;;;6247921;22;20432;-77
2022/07/27 05:13:23;;;;;;;0.10;0.10;;;13.50;75.60;;;;;;6274537;22;20095;-74
2022/07/27 05:15:49;;;;;;;0.20;0.20;;;13.60;75.60;;;;;;6275293;22;20042;-78
2022/07/27 05:18:15;;;;;;;0.38;0.25;;;13.80;75.70;;;;;;6275521;22;20395;-77
2022/07/27 05:20:40;;;;;;;0.20;0.20;;;13.70;75.70;;;;;;6276456;22;20018;-77
2022/07/27 05:23:06;;;;;;;0.30;0.30;;;13.60;75.60;;;;;;6276395;22;20061;-77
2022/07/27 05:25:32;;;;;;;0.30;0.20;;;13.70;75.60;;;;;;6274539;22;20008;-77
2022/07/27 05:27:58;;;;;;;0.30;0.20;;;13.80;75.60;;;;;;6249104;22;20007;-77
2022/07/27 05:30:24;;;;;;;0.22;0.20;;;13.90;75.60;;;;;;6276491;22;20079;-78
2022/07/27 05:32:51;;;;;;;0.20;0.20;;;13.80;75.50;;;;;;6274813;22;20015;-77
2022/07/27 05:35:17;;;;;;;0.10;0.10;;;13.90;75.50;;;;;;6276176;22;20458;-78
2022/07/27 05:37:42;;;;;;;0.20;0.20;;;14.00;75.40;;;;;;6274793;22;20007;-77
2022/07/27 05:40:09;;;;;;;0.15;0.15;;;14.10;75.30;;;;;;6276166;22;20018;-77
2022/07/27 05:42:35;;;;;;;0.10;0.10;;;14.20;75.30;;;;;;6275244;22;20003;-77
2022/07/27 05:45:01;;;;;;;0.10;0.10;;;14.20;75.30;;;;;;6248743;22;20011;-76
2022/07/27 05:47:26;;;;;;;0.30;0.30;;;14.30;75.20;;;;;;6274221;22;20258;-77
2022/07/27 05:49:52;;;;;;;0.82;0.20;;;14.30;75.00;;;;;;6248586;22;20446;-77
2022/07/27 05:52:19;;;;;;;0.45;0.10;;;14.40;75.00;;;;;;6274401;22;20098;-78
2022/07/27 05:54:45;;;;;;;0.30;0.20;;;14.50;75.00;;;;;;6274527;22;20019;-79
2022/07/27 05:57:11;;;;;;;0.17;0.17;;;14.50;75.00;;;;;;6274414;22;20008;-79
2022/07/27 05:59:37;;;;;;;0.10;0.10;;;14.50;75.00;;;;;;6274371;22;20016;-79
2022/07/27 06:02:03;;;;;;;0.13;0.13;;;14.60;74.90;;;;;;6275771;22;20015;-79
2022/07/27 06:04:29;;;;;;;0.10;0.10;;;14.70;74.80;;;;;;6274564;22;20015;-79
2022/07/27 06:09:40;;;;;;;0.10;0.10;;;14.80;74.60;;;;;;6274909;22;20018;-78
2022/07/27 06:12:06;;;;;;;0.20;0.20;;;14.90;74.50;;;;;;6276022;22;20075;-79
2022/07/27 06:14:31;;;;;;;0.20;0.20;;;15.00;74.40;;;;;;6276226;22;20020;-79
2022/07/27 06:16:57;;;;;;;0.10;0.10;;;15.20;74.40;;;;;;6276474;22;20012;-78
2022/07/27 06:19:23;;;;;;;0.20;0.20;;;15.20;74.30;;;;;;6276021;22;20007;-78
2022/07/27 06:21:50;;;;;;;0.20;0.20;;;15.30;74.20;;;;;;6275803;22;20504;-78
2022/07/27 06:24:16;;;;;;;0.30;0.20;;;15.30;74.10;;;;;;6275839;22;20065;-78
2022/07/27 06:26:42;;;;;;;0.28;0.20;;;15.40;74.00;;;;;;6248815;22;20004;-79
2022/07/27 06:29:08;;;;;;;0.20;0.20;;;15.40;74.00;;;;;;6274678;22;20336;-78
2022/07/27 06:31:34;;;;;;;0.20;0.20;;;15.60;73.90;;;;;;6276488;22;20008;-78
2022/07/27 06:34:00;;;;;;;0.20;0.20;;;15.60;73.80;;;;;;6276654;22;20012;-78
2022/07/27 06:36:25;;;;;;;0.20;0.20;;;15.80;73.80;;;;;;6274779;22;20317;-76
2022/07/27 06:38:51;;;;;;;0.13;0.13;;;15.80;73.60;;;;;;6276943;22;20015;-80
2022/07/27 06:41:17;;;;;;;0.28;0.20;;;15.90;73.40;;;;;;6223944;22;20436;-77
2022/07/27 06:47:32;;;;;;;0.22;0.20;;;16.10;73.40;;;;;;6121752;23;20057;-79
2022/07/27 06:50:03;;;;;;;0.40;0.30;;;16.30;73.00;;;;;;6102918;23;20052;-79
2022/07/27 06:52:29;;;;;;;0.10;0.10;;;16.30;72.70;;;;;;6107757;23;20033;-79
2022/07/27 06:54:57;;;;;;;0.13;0.13;;;16.40;72.60;;;;;;6123399;23;20390;-78
2022/07/27 06:57:23;;;;;;;0.28;0.28;;;16.60;72.60;;;;;;6147471;23;20021;-79
2022/07/27 06:59:49;;;;;;;0.13;0.13;;;16.70;72.40;;;;;;6099024;23;20014;-79
2022/07/27 08:47:33;;;;;;;1.27;0.35;;;20.10;68.50;;;;;;6063296;23;20026;-74
2022/07/27 09:21:29;;;;;;;0.15;0.15;;;20.20;67.40;;;;;;4929790;29;20111;-76
2022/07/27 09:24:30;;;;;;;0.20;0.20;;;20.10;67.70;;;;;;4858579;29;20120;-77
2022/07/27 09:27:04;;;;;;;0.40;0.30;;;20.10;67.90;;;;;;4798627;29;20138;-76
2022/07/27 09:29:34;;;;;;;1.20;0.40;;;20.20;67.50;;;;;;4800011;29;20063;-77
2022/07/27 09:35:37;;;;;;;0.10;0.10;;;19.90;67.30;;;;;;4772222;30;20048;-79
2022/07/27 09:41:46;;;;;;;0.43;0.20;;;20.40;66.60;;;;;;4732676;30;20048;-78
2022/07/27 09:44:33;;;;;;;0.20;0.20;;;20.80;65.70;;;;;;4733396;30;20409;-78
2022/07/27 09:47:27;;;;;;;0.30;0.30;;;21.00;64.80;;;;;;4737004;30;20049;-77
2022/07/27 09:50:03;;;;;;;0.20;0.20;;;21.10;64.60;;;;;;4746219;30;20080;-77
2022/07/27 10:49:17;;;;;;;0.10;0.10;;;20.50;63.20;;;;;;6146026;23;20021;-77
2022/07/27 10:51:43;;;;;;;0.10;0.10;;;20.50;63.20;;;;;;6136400;23;20013;-76
2022/07/27 10:54:25;;;;;;;0.10;0.10;;;20.50;63.20;;;;;;6161699;23;20088;-76
2022/07/27 10:56:53;;;;;;;0.13;0.13;;;20.50;62.90;;;;;;6161874;23;21106;-77
2022/07/27 10:59:52;;;;;;;0.40;0.20;;;20.60;62.90;;;;;;6159347;23;20009;-76
2022/07/27 11:02:39;;;;;;;0.20;0.20;;;20.50;62.80;;;;;;6156294;23;20009;-77
2022/07/27 11:47:14;;;;;;;0.43;0.20;;;22.20;59.90;;;;;;6284015;22;20118;-77
2022/07/27 11:49:40;;;;;;;0.20;0.20;;;22.00;60.00;;;;;;6225553;23;20074;-77
2022/07/27 11:52:07;;;;;;;0.20;0.20;;;21.80;60.30;;;;;;6250579;23;20336;-77
2022/07/27 11:54:39;;;;;;;0.20;0.20;;;21.70;60.40;;;;;;6250759;23;20020;-76
2022/07/27 11:57:08;;;;;;;0.20;0.20;;;21.60;60.30;;;;;;6252015;22;20387;-75
2022/07/27 11:59:36;;;;;;;0.20;0.20;;;21.60;60.30;;;;;;6250686;23;20468;-75
2022/07/27 12:05:58;;;;;;;0.30;0.20;;;21.60;60.00;;;;;;6098099;23;20018;-76
2022/07/27 12:08:25;;;;;;;0.20;0.20;;;21.60;60.00;;;;;;6101567;23;20029;-75
2022/07/27 12:15:16;;;;;;;0.55;0.20;;;21.60;59.40;;;;;;6097140;23;20537;-76
2022/07/27 12:25:24;;;;;;;0.10;0.10;;;21.80;59.00;;;;;;5695033;25;20420;-78
2022/07/27 12:31:48;;;;;;;0.55;0.20;;;22.00;58.20;;;;;;5663860;25;20462;-78
2022/07/27 12:38:11;;;;;;;0.30;0.20;;;22.20;57.60;;;;;;5729152;25;20031;-77
2022/07/27 12:40:54;;;;;;;0.32;0.32;;;22.30;57.40;;;;;;5700746;25;20087;-77
2022/07/27 12:43:22;;;;;;;0.22;0.15;;;22.20;57.30;;;;;;5771783;24;20082;-75
2022/07/27 13:44:39;;;;;;;0.20;0.20;;;22.10;57.00;;;;;;6267202;22;20216;-76
2022/07/27 13:54:20;;;;;;;0.40;0.20;;;22.00;57.20;;;;;;6134261;23;20049;-75
2022/07/27 14:00:50;;;;;;;0.10;0.10;;;21.80;57.30;;;;;;6079213;23;20029;-75
2022/07/27 14:06:58;;;;;;;0.50;0.40;;;21.90;57.40;;;;;;5879947;24;20029;-75
2022/07/27 14:12:18;;;;;;;0.20;0.20;;;22.00;57.20;;;;;;5879861;24;20018;-75
2022/07/27 14:25:51;;;;;;;0.20;0.20;;;22.10;56.80;;;;;;5081664;28;20045;-78
2022/07/27 14:28:18;;;;;;;0.68;0.28;;;22.10;56.80;;;;;;4997353;28;20483;-77
2022/07/27 14:30:44;;;;;;;0.47;0.10;;;22.10;57.00;;;;;;5010495;28;20037;-77
2022/07/27 14:33:10;;;;;;;0.17;0.13;;;22.10;57.00;;;;;;4996456;28;20049;-78
2022/07/27 14:35:41;;;;;;;0.28;0.28;;;21.90;57.00;;;;;;4997361;28;20558;-78
2022/07/27 14:38:08;;;;;;;1.70;0.20;;;22.00;57.10;;;;;;4995179;28;20046;-78
2022/07/27 14:40:34;;;;;;;0.30;0.30;;;22.00;57.00;;;;;;5004946;28;20038;-76
2022/07/27 14:43:26;;;;;;;0.40;0.30;;;22.00;57.00;;;;;;5031294;28;20619;-80
2022/07/27 15:19:14;;;;;;;0.20;0.20;;;21.80;56.00;;;;;;4826717;29;20171;-76
2022/07/27 15:21:40;;;;;;;0.52;0.20;;;21.80;56.10;;;;;;4817285;29;20038;-75
2022/07/27 15:24:07;;;;;;;0.50;0.20;;;21.70;56.10;;;;;;4836413;29;20043;-75
2022/07/27 15:26:33;;;;;;;0.20;0.20;;;21.60;56.20;;;;;;4837322;29;20058;-76
2022/07/27 15:28:59;;;;;;;0.13;0.13;;;21.60;56.40;;;;;;4821527;29;20083;-75
2022/07/27 15:31:26;;;;;;;0.10;0.10;;;21.60;56.50;;;;;;4830898;29;20046;-75
2022/07/27 15:33:52;;;;;;;0.20;0.20;;;21.50;56.40;;;;;;4824076;29;20050;-75
2022/07/27 15:36:19;;;;;;;0.22;0.22;;;21.40;56.60;;;;;;4823758;29;20146;-75
2022/07/27 15:38:46;;;;;;;0.17;0.17;;;21.40;56.80;;;;;;4824002;29;20498;-75
2022/07/27 15:41:11;;;;;;;0.47;0.30;;;21.40;56.80;;;;;;4794317;29;20116;-75
2022/07/27 15:43:38;;;;;;;0.57;0.40;;;21.40;56.90;;;;;;4851727;29;20133;-75
2022/07/27 15:46:04;;;;;;;0.28;0.20;;;21.40;56.90;;;;;;4860749;29;20081;-75
2022/07/27 15:48:31;;;;;;;0.20;0.20;;;21.30;56.80;;;;;;4860500;29;20048;-75
2022/07/27 15:50:57;;;;;;;0.30;0.30;;;21.30;56.80;;;;;;4895358;28;20089;-75
2022/07/27 15:53:27;;;;;;;0.20;0.20;;;21.30;56.80;;;;;;4971974;28;20050;-75
2022/07/27 15:55:53;;;;;;;0.30;0.30;;;21.20;56.80;;;;;;5062121;28;20039;-75
2022/07/27 15:58:19;;;;;;;0.50;0.40;;;21.20;56.80;;;;;;5113354;28;20068;-75
2022/07/27 16:00:49;;;;;;;0.50;0.30;;;21.20;56.90;;;;;;5115122;28;20126;-74
2022/07/27 16:03:14;;;;;;;0.20;0.20;;;21.20;56.80;;;;;;5113101;28;20473;-74
2022/07/27 16:05:42;;;;;;;0.20;0.20;;;21.20;56.80;;;;;;5115069;28;20047;-75
2022/07/27 16:08:08;;;;;;;0.20;0.20;;;21.20;56.80;;;;;;5112685;28;20042;-75
2022/07/27 16:10:36;;;;;;;0.20;0.20;;;21.30;56.80;;;;;;5111411;28;20120;-75
2022/07/27 16:13:04;;;;;;;0.38;0.20;;;21.30;56.60;;;;;;5114562;28;20051;-75
2022/07/27 16:18:08;;;;;;;0.22;0.20;;;21.30;56.40;;;;;;5114645;28;20043;-76
2022/07/27 16:20:34;;;;;;;0.55;0.30;;;21.40;56.40;;;;;;5081612;28;20134;-76
2022/07/27 16:23:00;;;;;;;0.20;0.17;;;21.40;56.40;;;;;;5081052;28;20055;-75
2022/07/27 16:25:25;;;;;;;0.20;0.20;;;21.40;56.40;;;;;;5111052;28;20122;-75
2022/07/27 16:27:51;;;;;;;0.20;0.20;;;21.40;56.30;;;;;;5114392;28;20047;-73
2022/07/27 16:30:17;;;;;;;0.30;0.20;;;21.40;56.20;;;;;;5112583;28;20043;-75
2022/07/27 16:32:43;;;;;;;0.22;0.20;;;21.50;56.30;;;;;;5114626;28;20051;-75
2022/07/27 16:35:09;;;;;;;0.30;0.30;;;21.40;56.20;;;;;;5078972;28;20126;-75
2022/07/27 16:37:34;;;;;;;0.55;0.40;;;21.50;56.20;;;;;;5095151;28;20079;-74
2022/07/27 16:40:00;;;;;;;0.20;0.20;;;21.50;56.10;;;;;;5094851;28;20044;-75
2022/07/27 16:42:26;;;;;;;0.32;0.20;;;21.50;56.00;;;;;;5095673;28;20032;-75
2022/07/27 16:44:51;;;;;;;0.25;0.25;;;21.50;56.00;;;;;;5095094;28;20039;-74
2022/07/27 16:47:17;;;;;;;0.30;0.30;;;21.50;56.10;;;;;;5112549;28;20058;-75
2022/07/27 16:49:43;;;;;;;0.10;0.10;;;21.50;56.00;;;;;;5109861;28;20048;-75
2022/07/27 16:52:08;;;;;;;0.38;0.20;;;21.50;56.00;;;;;;5112890;28;20048;-75
2022/07/27 16:54:34;;;;;;;0.20;0.20;;;21.40;55.90;;;;;;5095740;28;20035;-75
2022/07/27 16:57:00;;;;;;;0.13;0.10;;;21.50;56.00;;;;;;5095692;28;20071;-74
2022/07/27 16:59:25;;;;;;;0.30;0.30;;;21.50;55.90;;;;;;5096229;28;20051;-74
2022/07/27 17:01:51;;;;;;;0.17;0.17;;;21.40;55.90;;;;;;5114657;28;20124;-75
2022/07/27 17:04:18;;;;;;;0.28;0.22;;;21.40;55.90;;;;;;5097970;28;20541;-74
2022/07/27 17:06:43;;;;;;;0.43;0.40;;;21.30;55.90;;;;;;5114209;28;20038;-74
2022/07/27 17:09:09;;;;;;;0.20;0.20;;;21.30;56.00;;;;;;5097577;28;20031;-74
2022/07/27 17:11:35;;;;;;;0.20;0.20;;;21.20;56.00;;;;;;5077900;28;20044;-74
2022/07/27 17:14:02;;;;;;;0.25;0.25;;;21.10;56.00;;;;;;5112191;28;20043;-74
2022/07/27 17:16:28;;;;;;;0.20;0.20;;;21.10;56.00;;;;;;5111799;28;20444;-75
2022/07/27 17:19:07;;;;;;;0.30;0.30;;;21.10;56.00;;;;;;5110625;28;20032;-75
2022/07/27 17:21:33;;;;;;;0.60;0.38;;;21.10;55.90;;;;;;5116245;28;20039;-75
2022/07/27 17:23:59;;;;;;;0.20;0.20;;;21.10;55.90;;;;;;5118624;28;20040;-75
2022/07/27 17:26:24;;;;;;;0.20;0.20;;;21.10;55.90;;;;;;5114233;28;20090;-75
2022/07/27 17:28:50;;;;;;;0.20;0.20;;;21.20;55.80;;;;;;5118016;28;20042;-76
2022/07/27 17:31:17;;;;;;;0.20;0.20;;;21.10;55.60;;;;;;5116839;28;20046;-76
2022/07/27 17:33:43;;;;;;;0.22;0.22;;;21.00;55.70;;;;;;5103355;28;20505;-76
2022/07/27 17:36:08;;;;;;;0.10;0.10;;;21.00;55.90;;;;;;5101461;28;20040;-76
2022/07/27 17:38:34;;;;;;;0.10;0.10;;;21.00;56.00;;;;;;5101022;28;20044;-75
2022/07/27 17:41:00;;;;;;;0.10;0.10;;;20.90;56.10;;;;;;5119962;28;20043;-75
2022/07/27 17:43:26;;;;;;;0.25;0.22;;;20.90;56.20;;;;;;5121666;28;20110;-75
2022/07/27 17:45:51;;;;;;;0.20;0.20;;;20.90;56.20;;;;;;5117123;28;20172;-75
2022/07/27 17:48:19;;;;;;;0.40;0.30;;;20.90;56.20;;;;;;5116572;28;20035;-75
2022/07/27 17:50:44;;;;;;;0.20;0.20;;;20.80;56.10;;;;;;5100454;28;20507;-75
2022/07/27 17:53:10;;;;;;;0.65;0.30;;;20.80;56.20;;;;;;5119585;28;20031;-75
2022/07/27 17:55:36;;;;;;;0.45;0.30;;;20.70;56.20;;;;;;5117188;28;20035;-75
2022/07/27 17:58:02;;;;;;;0.20;0.20;;;20.70;56.30;;;;;;5100623;28;20050;-75
2022/07/27 18:00:28;;;;;;;1.50;0.20;;;20.70;56.20;;;;;;5118746;28;20067;-75
2022/07/27 18:02:54;;;;;;;0.20;0.20;;;20.70;56.20;;;;;;5096316;28;20393;-76
2022/07/27 18:05:20;;;;;;;0.82;0.50;;;20.70;56.10;;;;;;5115855;28;20031;-74
2022/07/27 18:07:45;;;;;;;0.30;0.30;;;20.70;56.10;;;;;;5116303;28;20505;-75
2022/07/27 18:10:12;;;;;;;0.52;0.30;;;20.70;56.00;;;;;;5095941;28;20047;-75
2022/07/27 18:12:39;;;;;;;0.50;0.30;;;20.60;56.00;;;;;;5110901;28;20553;-75
2022/07/27 18:17:47;;;;;;;0.20;0.20;;;20.50;56.40;;;;;;5121167;28;20036;-75
2022/07/27 18:20:13;;;;;;;0.43;0.30;;;20.40;56.30;;;;;;5119488;28;20057;-75
2022/07/27 18:22:40;;;;;;;0.20;0.20;;;20.40;56.30;;;;;;5101829;28;20057;-75
2022/07/27 18:25:08;;;;;;;0.30;0.30;;;20.30;56.30;;;;;;5118759;28;20043;-75
2022/07/27 18:27:34;;;;;;;0.35;0.20;;;20.30;56.40;;;;;;5084215;28;20146;-74
2022/07/27 18:30:02;;;;;;;0.20;0.20;;;20.30;56.50;;;;;;5084146;28;20047;-75
2022/07/27 18:32:27;;;;;;;0.68;0.20;;;20.20;56.50;;;;;;5119174;28;20040;-75
2022/07/27 18:34:54;;;;;;;0.20;0.20;;;20.10;56.60;;;;;;5119509;28;20111;-75
2022/07/27 18:37:20;;;;;;;0.25;0.15;;;20.10;56.70;;;;;;5118292;28;20481;-75
2022/07/27 18:39:46;;;;;;;0.10;0.10;;;20.00;56.80;;;;;;5084598;28;20062;-76
2022/07/27 18:42:11;;;;;;;0.30;0.30;;;20.00;56.80;;;;;;5118767;28;20040;-76
2022/07/27 18:44:37;;;;;;;0.20;0.20;;;20.00;56.90;;;;;;5099953;28;20063;-75
2022/07/27 18:47:03;;;;;;;0.38;0.20;;;19.90;56.90;;;;;;5099860;28;20048;-75
2022/07/27 18:49:29;;;;;;;0.20;0.20;;;19.80;57.00;;;;;;5117760;28;20393;-75
2022/07/27 18:51:55;;;;;;;0.10;0.10;;;19.80;57.10;;;;;;5099477;28;20453;-74
2022/07/27 18:54:21;;;;;;;0.20;0.20;;;19.70;57.10;;;;;;5115897;28;20050;-75
2022/07/27 18:56:47;;;;;;;0.17;0.17;;;19.60;57.10;;;;;;5113738;28;20060;-76
2022/07/27 18:59:14;;;;;;;0.20;0.20;;;19.60;57.20;;;;;;5082535;28;20040;-77
2022/07/27 19:01:40;;;;;;;0.25;0.25;;;19.50;57.30;;;;;;5082592;28;20122;-75
2022/07/27 19:04:06;;;;;;;0.20;0.20;;;19.50;57.40;;;;;;5116418;28;20437;-76
2022/07/27 19:06:32;;;;;;;0.20;0.20;;;19.40;57.40;;;;;;5103194;28;20044;-75
2022/07/27 19:08:58;;;;;;;0.17;0.17;;;19.40;57.40;;;;;;5103418;28;20037;-75
2022/07/27 19:11:24;;;;;;;0.52;0.30;;;19.40;57.50;;;;;;5105318;28;20046;-76
2022/07/27 19:13:49;;;;;;;0.10;0.10;;;19.30;57.50;;;;;;5124588;28;20084;-75
2022/07/27 19:16:15;;;;;;;0.25;0.20;;;19.30;57.60;;;;;;5125192;28;20058;-75
2022/07/27 19:18:41;;;;;;;0.28;0.10;;;19.30;57.70;;;;;;5105272;28;20043;-75
2022/07/27 19:21:06;;;;;;;0.25;0.25;;;19.20;57.70;;;;;;5120078;28;20039;-75
2022/07/27 19:23:32;;;;;;;0.15;0.15;;;19.10;57.70;;;;;;5089679;28;20032;-75
2022/07/27 19:25:59;;;;;;;0.20;0.20;;;19.10;57.90;;;;;;5124261;28;20055;-75
2022/07/27 19:28:26;;;;;;;0.30;0.30;;;19.00;57.90;;;;;;5091783;28;20059;-75